createdAt,value
2018-08-27T00:07:01.248Z,2
2018-08-27T00:17:01.233Z,3
2018-08-27T00:27:01.186Z,2
2018-08-27T00:37:01.240Z,2
2018-08-27T00:47:01.258Z,2
2018-08-27T00:57:01.223Z,3
2018-08-27T01:07:01.232Z,1
2018-08-27T01:17:01.192Z,1
2018-08-27T01:27:01.187Z,2
2018-08-27T01:37:01.203Z,4
2018-08-27T01:47:01.188Z,2
2018-08-27T01:57:01.223Z,2
2018-08-27T02:07:01.266Z,1
2018-08-27T02:17:01.333Z,3
2018-08-27T02:27:01.211Z,2
2018-08-27T02:37:01.257Z,3
2018-08-27T02:47:01.234Z,3
2018-08-27T02:57:01.256Z,2
2018-08-27T03:07:01.231Z,2
2018-08-27T03:17:01.256Z,2
2018-08-27T03:27:01.221Z,2
2018-08-27T03:37:01.339Z,3
2018-08-27T03:47:01.276Z,6
2018-08-27T03:57:01.431Z,2
2018-08-27T04:07:01.267Z,3
2018-08-27T04:17:01.298Z,2
2018-08-27T04:27:04.131Z,2
2018-08-27T04:37:01.369Z,2
2018-08-27T04:57:45.976Z,2
2018-08-27T04:58:26.504Z,2
2018-08-27T05:08:26.476Z,3
2018-08-27T05:18:26.519Z,3
2018-08-27T05:28:26.485Z,3
2018-08-27T05:38:26.475Z,3
2018-08-27T05:48:26.516Z,3
2018-08-27T05:58:26.462Z,3
2018-08-27T06:08:26.446Z,6
2018-08-27T06:18:26.520Z,2
2018-08-27T06:28:26.469Z,3
2018-08-27T06:38:26.498Z,4
2018-08-27T06:48:26.453Z,18
2018-08-27T06:58:26.501Z,4
2018-08-27T07:08:26.482Z,5
2018-08-27T07:18:26.543Z,7
2018-08-27T07:28:26.485Z,6
2018-08-27T07:38:26.512Z,8
2018-08-27T07:48:26.499Z,11
2018-08-27T07:58:26.523Z,9
2018-08-27T08:08:26.687Z,10
2018-08-27T08:18:26.527Z,12
2018-08-27T08:28:26.495Z,10
2018-08-27T08:38:26.463Z,9
2018-08-27T08:48:26.525Z,8
2018-08-27T08:58:26.468Z,9
2018-08-27T09:08:26.486Z,12
2018-08-27T09:18:26.484Z,13
2018-08-27T09:28:26.478Z,15
2018-08-27T09:38:26.480Z,19
2018-08-27T09:48:26.496Z,18
2018-08-27T09:58:26.538Z,18
2018-08-27T10:08:26.596Z,18
2018-08-27T10:18:26.493Z,18
2018-08-27T10:28:26.493Z,15
2018-08-27T10:38:26.452Z,14
2018-08-27T10:48:26.486Z,13
2018-08-27T10:58:26.564Z,11
2018-08-27T11:08:26.526Z,11
2018-08-27T11:18:26.545Z,10
2018-08-27T11:28:26.639Z,10
2018-08-27T11:38:26.553Z,9
2018-08-27T11:48:26.469Z,8
2018-08-27T11:58:26.566Z,10
2018-08-27T12:08:26.517Z,9
2018-08-27T12:18:26.541Z,9
2018-08-27T12:28:26.605Z,7
2018-08-27T12:38:26.533Z,5
2018-08-27T12:48:26.586Z,7
2018-08-27T12:58:26.552Z,7
2018-08-27T13:08:26.525Z,4
2018-08-27T13:18:26.564Z,7
2018-08-27T13:28:26.525Z,6
2018-08-27T13:38:26.545Z,6
2018-08-27T13:48:26.536Z,6
2018-08-27T13:58:26.552Z,6
2018-08-27T14:08:26.517Z,4
2018-08-27T14:18:26.538Z,4
2018-08-27T14:28:26.545Z,6
2018-08-27T14:38:26.681Z,8
2018-08-27T14:48:26.548Z,8
2018-08-27T14:58:26.578Z,6
2018-08-27T15:08:26.534Z,8
2018-08-27T15:18:26.533Z,7
2018-08-27T15:28:26.511Z,5
2018-08-27T15:38:26.643Z,7
2018-08-27T15:48:26.537Z,7
2018-08-27T15:58:26.651Z,6
2018-08-27T16:08:26.601Z,6
2018-08-27T16:18:26.670Z,9
2018-08-27T16:28:28.730Z,7
2018-08-27T16:38:26.480Z,7
2018-08-27T16:48:26.579Z,10
2018-08-27T16:58:26.620Z,10
2018-08-27T17:08:26.569Z,11
2018-08-27T17:18:26.662Z,11
2018-08-27T17:28:31.693Z,12
2018-08-27T17:38:26.537Z,14
2018-08-27T17:48:26.557Z,10
2018-08-27T17:58:26.782Z,12
2018-08-27T18:08:28.915Z,15
2018-08-27T18:18:28.310Z,11
2018-08-27T18:28:30.731Z,11
2018-08-27T18:38:29.951Z,16
2018-08-27T18:48:27.574Z,11
2018-08-27T18:58:31.837Z,14
2018-08-27T19:08:32.977Z,12
2018-08-27T19:18:32.655Z,13
2018-08-27T19:28:33.277Z,15
2018-08-27T19:38:34.045Z,12
2018-08-27T19:48:27.383Z,10
2018-08-27T19:58:26.710Z,15
2018-08-27T20:08:26.731Z,13
2018-08-27T20:18:26.620Z,9
2018-08-27T20:28:26.629Z,8
2018-08-27T20:38:26.570Z,7
2018-08-27T20:48:26.712Z,8
2018-08-27T20:58:26.743Z,7
2018-08-27T21:08:26.711Z,6
2018-08-27T21:18:26.689Z,7
2018-08-27T21:28:26.556Z,5
2018-08-27T21:38:26.725Z,5
2018-08-27T21:48:26.754Z,5
2018-08-27T21:58:26.625Z,4
2018-08-27T22:14:53.838Z,5
2018-08-27T22:18:26.566Z,8
2018-08-27T22:28:26.665Z,6
2018-08-27T22:38:26.645Z,5
2018-08-27T22:48:27.634Z,5
2018-08-27T22:58:26.733Z,6
2018-08-27T23:08:26.604Z,8
2018-08-27T23:18:26.661Z,9
2018-08-27T23:28:26.709Z,6
2018-08-27T23:38:26.659Z,7
2018-08-27T23:48:26.669Z,6
2018-08-27T23:58:26.687Z,6
